South Bowie, Maryland
Current Conditions -  °F | °C
As of 5:30 PM on Tuesday 21 Oct 2014 (Local Time) from KFME Reporting Station
Overcast Overcast  
Wind Chill: 61°   Ceiling: 5500
Heat Index: 61°   Visibility: 10mi
Dew Point: 52°   Wind: 0mph
Humidity: 72%   Direction: NA
Pressure: 29.84"   Gusts: NA
Location:  38.927°N, 76.7149°W
Report Text: KFME 212130Z AUTO 00000KT 10SM BKN055 OVC075 16/11 A2984 RMK AO1
Loading
Personal Weather Stations






























Interactive Weather Map
Tropical Storm Tracking
New forecast layout! Learn more

10-Day Weather Forecast

Advertisements
Track Severe Weather on mobile